sensor_id;sensor_type;location;lat;lon;timestamp;P1;durP1;ratioP1;P2;durP2;ratioP2
39188;SDS011;24915;50.858;4.376;2022-09-09T00:07:38;16.25;;;5.28;;
39188;SDS011;24915;50.858;4.376;2022-09-09T00:15:19;6.30;;;1.52;;
39188;SDS011;24915;50.858;4.376;2022-09-09T00:23:39;4.80;;;1.90;;
39188;SDS011;24915;50.858;4.376;2022-09-09T00:26:13;4.15;;;1.30;;
39188;SDS011;24915;50.858;4.376;2022-09-09T00:28:52;3.42;;;1.75;;
39188;SDS011;24915;50.858;4.376;2022-09-09T00:31:33;10.18;;;2.42;;
39188;SDS011;24915;50.858;4.376;2022-09-09T00:34:12;3.78;;;1.50;;
39188;SDS011;24915;50.858;4.376;2022-09-09T00:36:41;5.38;;;1.60;;
39188;SDS011;24915;50.858;4.376;2022-09-09T00:39:10;3.47;;;1.45;;
39188;SDS011;24915;50.858;4.376;2022-09-09T00:44:22;5.97;;;1.88;;
39188;SDS011;24915;50.858;4.376;2022-09-09T00:46:59;3.60;;;1.45;;
39188;SDS011;24915;50.858;4.376;2022-09-09T00:52:20;5.55;;;1.40;;
39188;SDS011;24915;50.858;4.376;2022-09-09T00:55:03;3.90;;;1.48;;
39188;SDS011;24915;50.858;4.376;2022-09-09T00:57:41;5.22;;;1.20;;
39188;SDS011;24915;50.858;4.376;2022-09-09T01:00:23;10.27;;;1.83;;
39188;SDS011;24915;50.858;4.376;2022-09-09T01:11:51;6.32;;;1.58;;
39188;SDS011;24915;50.858;4.376;2022-09-09T01:14:31;4.80;;;1.65;;
39188;SDS011;24915;50.858;4.376;2022-09-09T01:17:02;4.60;;;1.38;;
39188;SDS011;24915;50.858;4.376;2022-09-09T01:27:59;6.72;;;1.77;;
39188;SDS011;24915;50.858;4.376;2022-09-09T01:30:28;4.53;;;1.50;;
39188;SDS011;24915;50.858;4.376;2022-09-09T01:32:55;8.90;;;1.60;;
39188;SDS011;24915;50.858;4.376;2022-09-09T01:38:07;8.93;;;1.48;;
39188;SDS011;24915;50.858;4.376;2022-09-09T01:40:33;7.18;;;1.77;;
39188;SDS011;24915;50.858;4.376;2022-09-09T01:42:59;6.57;;;1.70;;
39188;SDS011;24915;50.858;4.376;2022-09-09T01:45:24;5.57;;;1.50;;
39188;SDS011;24915;50.858;4.376;2022-09-09T01:47:52;4.60;;;2.00;;
39188;SDS011;24915;50.858;4.376;2022-09-09T01:50:18;13.15;;;2.08;;
39188;SDS011;24915;50.858;4.376;2022-09-09T01:52:45;6.40;;;1.88;;
39188;SDS011;24915;50.858;4.376;2022-09-09T01:55:15;8.95;;;1.63;;
39188;SDS011;24915;50.858;4.376;2022-09-09T01:57:50;7.28;;;2.03;;
39188;SDS011;24915;50.858;4.376;2022-09-09T02:00:38;10.88;;;2.05;;
39188;SDS011;24915;50.858;4.376;2022-09-09T02:06:00;6.63;;;1.80;;
39188;SDS011;24915;50.858;4.376;2022-09-09T02:08:42;9.45;;;1.70;;
39188;SDS011;24915;50.858;4.376;2022-09-09T02:11:13;12.30;;;2.50;;
39188;SDS011;24915;50.858;4.376;2022-09-09T02:13:48;6.95;;;2.15;;
39188;SDS011;24915;50.858;4.376;2022-09-09T02:21:39;9.05;;;2.28;;
39188;SDS011;24915;50.858;4.376;2022-09-09T02:24:08;10.77;;;2.00;;
39188;SDS011;24915;50.858;4.376;2022-09-09T02:26:37;10.88;;;2.80;;
39188;SDS011;24915;50.858;4.376;2022-09-09T02:29:08;13.38;;;2.30;;
39188;SDS011;24915;50.858;4.376;2022-09-09T02:31:38;9.13;;;2.55;;
39188;SDS011;24915;50.858;4.376;2022-09-09T02:34:06;13.98;;;2.55;;
39188;SDS011;24915;50.858;4.376;2022-09-09T02:36:35;12.52;;;2.75;;
39188;SDS011;24915;50.858;4.376;2022-09-09T02:39:04;9.50;;;2.20;;
39188;SDS011;24915;50.858;4.376;2022-09-09T02:41:33;12.82;;;2.65;;
39188;SDS011;24915;50.858;4.376;2022-09-09T02:44:00;8.50;;;2.05;;
39188;SDS011;24915;50.858;4.376;2022-09-09T02:49:18;9.63;;;1.88;;
39188;SDS011;24915;50.858;4.376;2022-09-09T02:51:53;13.27;;;2.10;;
39188;SDS011;24915;50.858;4.376;2022-09-09T02:59:35;10.10;;;2.75;;
39188;SDS011;24915;50.858;4.376;2022-09-09T03:02:02;10.82;;;2.33;;
39188;SDS011;24915;50.858;4.376;2022-09-09T03:04:28;13.10;;;2.10;;
39188;SDS011;24915;50.858;4.376;2022-09-09T03:06:55;11.73;;;2.35;;
39188;SDS011;24915;50.858;4.376;2022-09-09T03:09:21;10.63;;;2.42;;
39188;SDS011;24915;50.858;4.376;2022-09-09T03:11:46;8.43;;;2.10;;
39188;SDS011;24915;50.858;4.376;2022-09-09T03:14:12;16.10;;;2.92;;
39188;SDS011;24915;50.858;4.376;2022-09-09T03:16:38;15.10;;;2.75;;
39188;SDS011;24915;50.858;4.376;2022-09-09T03:19:03;14.75;;;2.65;;
39188;SDS011;24915;50.858;4.376;2022-09-09T03:21:29;6.93;;;2.35;;
39188;SDS011;24915;50.858;4.376;2022-09-09T03:23:54;11.55;;;2.58;;
39188;SDS011;24915;50.858;4.376;2022-09-09T03:26:20;15.18;;;2.45;;
39188;SDS011;24915;50.858;4.376;2022-09-09T03:28:46;8.25;;;2.42;;
39188;SDS011;24915;50.858;4.376;2022-09-09T03:31:12;12.35;;;1.90;;
39188;SDS011;24915;50.858;4.376;2022-09-09T03:33:37;14.02;;;2.80;;
39188;SDS011;24915;50.858;4.376;2022-09-09T03:36:04;14.88;;;2.58;;
39188;SDS011;24915;50.858;4.376;2022-09-09T03:38:30;18.48;;;2.63;;
39188;SDS011;24915;50.858;4.376;2022-09-09T03:40:57;8.27;;;1.92;;
39188;SDS011;24915;50.858;4.376;2022-09-09T03:43:23;14.45;;;2.75;;
39188;SDS011;24915;50.858;4.376;2022-09-09T03:45:50;15.05;;;2.72;;
39188;SDS011;24915;50.858;4.376;2022-09-09T03:48:16;13.18;;;2.47;;
39188;SDS011;24915;50.858;4.376;2022-09-09T03:50:46;13.18;;;2.42;;
39188;SDS011;24915;50.858;4.376;2022-09-09T03:53:12;9.93;;;2.25;;
39188;SDS011;24915;50.858;4.376;2022-09-09T03:55:43;12.13;;;2.35;;
39188;SDS011;24915;50.858;4.376;2022-09-09T03:58:10;17.77;;;2.40;;
39188;SDS011;24915;50.858;4.376;2022-09-09T04:00:37;8.55;;;2.80;;
39188;SDS011;24915;50.858;4.376;2022-09-09T04:03:07;13.23;;;3.30;;
39188;SDS011;24915;50.858;4.376;2022-09-09T04:05:33;17.23;;;3.30;;
39188;SDS011;24915;50.858;4.376;2022-09-09T04:07:59;10.77;;;2.25;;
39188;SDS011;24915;50.858;4.376;2022-09-09T04:10:24;12.32;;;2.83;;
39188;SDS011;24915;50.858;4.376;2022-09-09T04:12:50;16.02;;;2.75;;
39188;SDS011;24915;50.858;4.376;2022-09-09T04:15:16;17.35;;;3.28;;
39188;SDS011;24915;50.858;4.376;2022-09-09T04:17:43;14.18;;;2.92;;
39188;SDS011;24915;50.858;4.376;2022-09-09T04:20:08;15.02;;;2.90;;
39188;SDS011;24915;50.858;4.376;2022-09-09T04:22:37;14.50;;;2.33;;
39188;SDS011;24915;50.858;4.376;2022-09-09T04:25:04;8.23;;;2.10;;
39188;SDS011;24915;50.858;4.376;2022-09-09T04:27:31;13.40;;;2.17;;
39188;SDS011;24915;50.858;4.376;2022-09-09T04:29:57;9.52;;;2.70;;
39188;SDS011;24915;50.858;4.376;2022-09-09T04:32:23;12.75;;;2.92;;
39188;SDS011;24915;50.858;4.376;2022-09-09T04:34:51;10.45;;;2.80;;
39188;SDS011;24915;50.858;4.376;2022-09-09T04:37:17;15.18;;;3.35;;
39188;SDS011;24915;50.858;4.376;2022-09-09T04:39:42;15.13;;;3.72;;
39188;SDS011;24915;50.858;4.376;2022-09-09T04:42:08;16.17;;;2.78;;
39188;SDS011;24915;50.858;4.376;2022-09-09T04:44:34;20.15;;;3.30;;
39188;SDS011;24915;50.858;4.376;2022-09-09T04:46:59;20.27;;;3.38;;
39188;SDS011;24915;50.858;4.376;2022-09-09T04:49:25;12.73;;;3.47;;
39188;SDS011;24915;50.858;4.376;2022-09-09T04:51:51;10.95;;;3.10;;
39188;SDS011;24915;50.858;4.376;2022-09-09T04:54:17;11.98;;;2.90;;
39188;SDS011;24915;50.858;4.376;2022-09-09T04:56:42;10.27;;;2.75;;
39188;SDS011;24915;50.858;4.376;2022-09-09T04:59:08;17.80;;;3.40;;
39188;SDS011;24915;50.858;4.376;2022-09-09T05:01:34;13.50;;;2.72;;
39188;SDS011;24915;50.858;4.376;2022-09-09T05:04:01;16.42;;;3.83;;
39188;SDS011;24915;50.858;4.376;2022-09-09T05:06:27;12.00;;;2.85;;
39188;SDS011;24915;50.858;4.376;2022-09-09T05:08:56;16.17;;;3.90;;
39188;SDS011;24915;50.858;4.376;2022-09-09T05:11:26;14.00;;;2.97;;
39188;SDS011;24915;50.858;4.376;2022-09-09T05:13:54;19.42;;;3.47;;
39188;SDS011;24915;50.858;4.376;2022-09-09T05:16:21;12.35;;;2.97;;
39188;SDS011;24915;50.858;4.376;2022-09-09T05:18:48;16.98;;;3.53;;
39188;SDS011;24915;50.858;4.376;2022-09-09T05:21:16;12.20;;;3.67;;
39188;SDS011;24915;50.858;4.376;2022-09-09T05:23:44;22.60;;;3.60;;
39188;SDS011;24915;50.858;4.376;2022-09-09T05:26:20;13.15;;;3.60;;
39188;SDS011;24915;50.858;4.376;2022-09-09T05:28:47;16.20;;;3.75;;
39188;SDS011;24915;50.858;4.376;2022-09-09T05:31:13;21.83;;;3.15;;
39188;SDS011;24915;50.858;4.376;2022-09-09T05:33:41;18.20;;;3.55;;
39188;SDS011;24915;50.858;4.376;2022-09-09T05:36:09;12.68;;;3.42;;
39188;SDS011;24915;50.858;4.376;2022-09-09T05:38:38;13.55;;;3.53;;
39188;SDS011;24915;50.858;4.376;2022-09-09T05:41:05;20.05;;;3.63;;
39188;SDS011;24915;50.858;4.376;2022-09-09T05:43:32;13.15;;;3.90;;
39188;SDS011;24915;50.858;4.376;2022-09-09T05:46:08;19.20;;;3.13;;
39188;SDS011;24915;50.858;4.376;2022-09-09T05:48:36;17.85;;;3.38;;
39188;SDS011;24915;50.858;4.376;2022-09-09T05:51:03;16.70;;;3.28;;
39188;SDS011;24915;50.858;4.376;2022-09-09T05:53:31;22.92;;;3.20;;
39188;SDS011;24915;50.858;4.376;2022-09-09T05:56:03;23.58;;;3.72;;
39188;SDS011;24915;50.858;4.376;2022-09-09T05:58:35;13.38;;;2.88;;
39188;SDS011;24915;50.858;4.376;2022-09-09T06:01:05;20.40;;;3.58;;
39188;SDS011;24915;50.858;4.376;2022-09-09T06:03:35;14.25;;;3.50;;
39188;SDS011;24915;50.858;4.376;2022-09-09T06:06:03;17.08;;;3.15;;
39188;SDS011;24915;50.858;4.376;2022-09-09T06:08:34;20.13;;;3.53;;
39188;SDS011;24915;50.858;4.376;2022-09-09T06:11:03;15.60;;;3.20;;
39188;SDS011;24915;50.858;4.376;2022-09-09T06:13:30;18.80;;;3.22;;
39188;SDS011;24915;50.858;4.376;2022-09-09T06:15:56;13.93;;;3.20;;
39188;SDS011;24915;50.858;4.376;2022-09-09T06:18:23;19.13;;;2.90;;
39188;SDS011;24915;50.858;4.376;2022-09-09T06:23:21;15.93;;;3.28;;
39188;SDS011;24915;50.858;4.376;2022-09-09T06:25:46;18.88;;;3.53;;
39188;SDS011;24915;50.858;4.376;2022-09-09T06:28:14;19.13;;;3.55;;
39188;SDS011;24915;50.858;4.376;2022-09-09T06:30:42;13.50;;;2.97;;
39188;SDS011;24915;50.858;4.376;2022-09-09T06:33:09;17.10;;;3.10;;
39188;SDS011;24915;50.858;4.376;2022-09-09T06:35:35;16.10;;;2.90;;
39188;SDS011;24915;50.858;4.376;2022-09-09T06:38:01;15.95;;;2.90;;
39188;SDS011;24915;50.858;4.376;2022-09-09T06:40:26;11.38;;;2.80;;
39188;SDS011;24915;50.858;4.376;2022-09-09T06:42:52;12.95;;;3.15;;
39188;SDS011;24915;50.858;4.376;2022-09-09T06:45:18;18.00;;;3.00;;
39188;SDS011;24915;50.858;4.376;2022-09-09T06:47:44;12.55;;;3.05;;
39188;SDS011;24915;50.858;4.376;2022-09-09T06:50:10;21.52;;;4.88;;
39188;SDS011;24915;50.858;4.376;2022-09-09T06:52:36;13.68;;;3.10;;
39188;SDS011;24915;50.858;4.376;2022-09-09T06:55:03;14.65;;;3.20;;
39188;SDS011;24915;50.858;4.376;2022-09-09T06:57:29;17.55;;;2.65;;
39188;SDS011;24915;50.858;4.376;2022-09-09T06:59:54;17.60;;;3.30;;
39188;SDS011;24915;50.858;4.376;2022-09-09T07:02:20;18.88;;;3.35;;
39188;SDS011;24915;50.858;4.376;2022-09-09T07:04:46;10.98;;;2.97;;
39188;SDS011;24915;50.858;4.376;2022-09-09T07:07:12;16.92;;;3.33;;
39188;SDS011;24915;50.858;4.376;2022-09-09T07:09:40;16.05;;;3.55;;
39188;SDS011;24915;50.858;4.376;2022-09-09T07:12:06;15.77;;;3.75;;
39188;SDS011;24915;50.858;4.376;2022-09-09T07:14:32;11.43;;;2.42;;
39188;SDS011;24915;50.858;4.376;2022-09-09T07:16:59;10.90;;;3.13;;
39188;SDS011;24915;50.858;4.376;2022-09-09T07:19:25;12.98;;;3.40;;
39188;SDS011;24915;50.858;4.376;2022-09-09T07:21:51;17.92;;;3.33;;
39188;SDS011;24915;50.858;4.376;2022-09-09T07:24:16;12.45;;;2.97;;
39188;SDS011;24915;50.858;4.376;2022-09-09T07:26:42;13.85;;;2.90;;
39188;SDS011;24915;50.858;4.376;2022-09-09T07:29:09;12.57;;;3.20;;
39188;SDS011;24915;50.858;4.376;2022-09-09T07:31:36;14.65;;;2.85;;
39188;SDS011;24915;50.858;4.376;2022-09-09T07:34:03;11.20;;;3.03;;
39188;SDS011;24915;50.858;4.376;2022-09-09T07:36:30;22.63;;;3.15;;
39188;SDS011;24915;50.858;4.376;2022-09-09T07:39:01;13.38;;;2.90;;
39188;SDS011;24915;50.858;4.376;2022-09-09T07:41:30;13.38;;;3.45;;
39188;SDS011;24915;50.858;4.376;2022-09-09T07:44:05;12.13;;;2.88;;
39188;SDS011;24915;50.858;4.376;2022-09-09T07:46:33;13.25;;;2.63;;
39188;SDS011;24915;50.858;4.376;2022-09-09T07:49:00;12.02;;;2.97;;
39188;SDS011;24915;50.858;4.376;2022-09-09T07:51:29;17.73;;;3.38;;
39188;SDS011;24915;50.858;4.376;2022-09-09T07:53:58;7.63;;;2.80;;
39188;SDS011;24915;50.858;4.376;2022-09-09T07:56:25;10.00;;;2.03;;
39188;SDS011;24915;50.858;4.376;2022-09-09T07:58:52;10.40;;;3.03;;
39188;SDS011;24915;50.858;4.376;2022-09-09T08:03:47;14.48;;;2.83;;
39188;SDS011;24915;50.858;4.376;2022-09-09T08:06:18;9.93;;;2.90;;
39188;SDS011;24915;50.858;4.376;2022-09-09T08:08:44;14.45;;;3.40;;
39188;SDS011;24915;50.858;4.376;2022-09-09T08:11:11;15.20;;;3.13;;
39188;SDS011;24915;50.858;4.376;2022-09-09T08:13:39;13.93;;;2.90;;
39188;SDS011;24915;50.858;4.376;2022-09-09T08:16:08;11.68;;;2.80;;
39188;SDS011;24915;50.858;4.376;2022-09-09T08:18:36;9.60;;;2.63;;
39188;SDS011;24915;50.858;4.376;2022-09-09T08:21:06;13.48;;;3.10;;
39188;SDS011;24915;50.858;4.376;2022-09-09T08:23:33;11.75;;;2.85;;
39188;SDS011;24915;50.858;4.376;2022-09-09T08:26:06;13.40;;;3.00;;
39188;SDS011;24915;50.858;4.376;2022-09-09T08:28:37;17.67;;;3.13;;
39188;SDS011;24915;50.858;4.376;2022-09-09T08:31:13;13.10;;;2.58;;
39188;SDS011;24915;50.858;4.376;2022-09-09T08:33:41;12.32;;;2.60;;
39188;SDS011;24915;50.858;4.376;2022-09-09T08:36:11;11.10;;;2.92;;
39188;SDS011;24915;50.858;4.376;2022-09-09T08:38:40;14.35;;;3.33;;
39188;SDS011;24915;50.858;4.376;2022-09-09T08:57:55;9.13;;;2.45;;
39188;SDS011;24915;50.858;4.376;2022-09-09T09:00:31;15.52;;;3.03;;
39188;SDS011;24915;50.858;4.376;2022-09-09T09:03:08;16.35;;;3.20;;
39188;SDS011;24915;50.858;4.376;2022-09-09T09:11:16;16.13;;;3.28;;
39188;SDS011;24915;50.858;4.376;2022-09-09T09:13:47;10.70;;;3.08;;
39188;SDS011;24915;50.858;4.376;2022-09-09T09:16:22;17.73;;;3.10;;
39188;SDS011;24915;50.858;4.376;2022-09-09T09:18:58;9.70;;;2.95;;
39188;SDS011;24915;50.858;4.376;2022-09-09T09:21:29;15.93;;;2.97;;
39188;SDS011;24915;50.858;4.376;2022-09-09T09:24:03;16.33;;;3.10;;
39188;SDS011;24915;50.858;4.376;2022-09-09T09:26:37;11.70;;;2.45;;
39188;SDS011;24915;50.858;4.376;2022-09-09T09:29:13;12.00;;;3.33;;
39188;SDS011;24915;50.858;4.376;2022-09-09T09:31:45;15.00;;;2.88;;
39188;SDS011;24915;50.858;4.376;2022-09-09T09:34:23;12.20;;;2.75;;
39188;SDS011;24915;50.858;4.376;2022-09-09T09:36:57;14.82;;;3.80;;
39188;SDS011;24915;50.858;4.376;2022-09-09T09:41:53;16.70;;;4.15;;
39188;SDS011;24915;50.858;4.376;2022-09-09T09:44:27;14.88;;;3.65;;
39188;SDS011;24915;50.858;4.376;2022-09-09T09:47:05;15.27;;;3.08;;
39188;SDS011;24915;50.858;4.376;2022-09-09T09:49:31;19.40;;;3.88;;
39188;SDS011;24915;50.858;4.376;2022-09-09T09:52:03;16.55;;;3.22;;
39188;SDS011;24915;50.858;4.376;2022-09-09T09:54:31;14.50;;;3.20;;
39188;SDS011;24915;50.858;4.376;2022-09-09T09:57:11;13.68;;;3.67;;
39188;SDS011;24915;50.858;4.376;2022-09-09T09:59:39;13.57;;;3.47;;
39188;SDS011;24915;50.858;4.376;2022-09-09T10:02:15;17.10;;;3.25;;
39188;SDS011;24915;50.858;4.376;2022-09-09T10:05:03;17.20;;;3.25;;
39188;SDS011;24915;50.858;4.376;2022-09-09T10:07:46;10.85;;;2.55;;
39188;SDS011;24915;50.858;4.376;2022-09-09T10:10:56;10.80;;;2.95;;
39188;SDS011;24915;50.858;4.376;2022-09-09T10:13:05;10.63;;;2.38;;
39188;SDS011;24915;50.858;4.376;2022-09-09T10:30:09;14.57;;;2.63;;
39188;SDS011;24915;50.858;4.376;2022-09-09T10:33:07;11.70;;;3.38;;
39188;SDS011;24915;50.858;4.376;2022-09-09T10:38:48;15.52;;;3.42;;
39188;SDS011;24915;50.858;4.376;2022-09-09T10:44:06;9.13;;;2.58;;
39188;SDS011;24915;50.858;4.376;2022-09-09T10:46:51;7.80;;;2.80;;
39188;SDS011;24915;50.858;4.376;2022-09-09T10:54:59;12.80;;;3.05;;
39188;SDS011;24915;50.858;4.376;2022-09-09T10:57:50;12.00;;;3.20;;
39188;SDS011;24915;50.858;4.376;2022-09-09T11:00:23;12.00;;;3.40;;
39188;SDS011;24915;50.858;4.376;2022-09-09T11:03:14;11.80;;;2.78;;
39188;SDS011;24915;50.858;4.376;2022-09-09T11:05:57;10.13;;;2.75;;
39188;SDS011;24915;50.858;4.376;2022-09-09T11:08:32;12.88;;;2.47;;
39188;SDS011;24915;50.858;4.376;2022-09-09T11:11:04;14.10;;;2.78;;
39188;SDS011;24915;50.858;4.376;2022-09-09T11:16:49;11.43;;;2.92;;
39188;SDS011;24915;50.858;4.376;2022-09-09T11:19:18;8.70;;;2.40;;
39188;SDS011;24915;50.858;4.376;2022-09-09T11:22:02;9.77;;;2.50;;
39188;SDS011;24915;50.858;4.376;2022-09-09T11:27:08;6.40;;;1.75;;
39188;SDS011;24915;50.858;4.376;2022-09-09T11:40:53;6.13;;;2.13;;
39188;SDS011;24915;50.858;4.376;2022-09-09T11:43:41;10.73;;;2.53;;
39188;SDS011;24915;50.858;4.376;2022-09-09T11:46:09;9.20;;;2.95;;
39188;SDS011;24915;50.858;4.376;2022-09-09T11:48:38;8.13;;;2.22;;
39188;SDS011;24915;50.858;4.376;2022-09-09T11:51:25;10.60;;;2.75;;
39188;SDS011;24915;50.858;4.376;2022-09-09T11:56:46;8.98;;;2.45;;
39188;SDS011;24915;50.858;4.376;2022-09-09T12:01:58;8.20;;;2.35;;
39188;SDS011;24915;50.858;4.376;2022-09-09T12:09:32;11.48;;;2.35;;
39188;SDS011;24915;50.858;4.376;2022-09-09T12:14:44;7.28;;;2.42;;
39188;SDS011;24915;50.858;4.376;2022-09-09T12:17:25;9.85;;;3.05;;
39188;SDS011;24915;50.858;4.376;2022-09-09T12:25:43;9.15;;;2.00;;
39188;SDS011;24915;50.858;4.376;2022-09-09T12:28:17;13.32;;;2.97;;
39188;SDS011;24915;50.858;4.376;2022-09-09T12:33:36;12.60;;;4.80;;
39188;SDS011;24915;50.858;4.376;2022-09-09T12:36:05;8.98;;;2.38;;
39188;SDS011;24915;50.858;4.376;2022-09-09T12:38:38;8.45;;;2.25;;
39188;SDS011;24915;50.858;4.376;2022-09-09T12:41:05;7.95;;;2.33;;
39188;SDS011;24915;50.858;4.376;2022-09-09T12:43:32;8.93;;;2.65;;
39188;SDS011;24915;50.858;4.376;2022-09-09T12:45:59;9.90;;;1.90;;
39188;SDS011;24915;50.858;4.376;2022-09-09T12:48:34;6.82;;;2.45;;
39188;SDS011;24915;50.858;4.376;2022-09-09T12:51:02;9.82;;;2.20;;
39188;SDS011;24915;50.858;4.376;2022-09-09T12:53:35;5.30;;;1.85;;
39188;SDS011;24915;50.858;4.376;2022-09-09T12:56:04;6.68;;;1.83;;
39188;SDS011;24915;50.858;4.376;2022-09-09T12:58:35;3.13;;;1.73;;
39188;SDS011;24915;50.858;4.376;2022-09-09T13:01:03;6.43;;;2.10;;
39188;SDS011;24915;50.858;4.376;2022-09-09T13:03:30;5.45;;;1.70;;
39188;SDS011;24915;50.858;4.376;2022-09-09T13:05:59;10.05;;;2.47;;
39188;SDS011;24915;50.858;4.376;2022-09-09T13:08:37;6.57;;;1.55;;
39188;SDS011;24915;50.858;4.376;2022-09-09T13:11:06;6.25;;;2.30;;
39188;SDS011;24915;50.858;4.376;2022-09-09T13:16:03;6.03;;;2.40;;
39188;SDS011;24915;50.858;4.376;2022-09-09T13:18:33;4.68;;;1.77;;
39188;SDS011;24915;50.858;4.376;2022-09-09T13:21:00;5.30;;;1.55;;
39188;SDS011;24915;50.858;4.376;2022-09-09T13:23:30;4.97;;;2.17;;
39188;SDS011;24915;50.858;4.376;2022-09-09T13:26:00;5.97;;;1.92;;
39188;SDS011;24915;50.858;4.376;2022-09-09T13:28:29;7.63;;;2.03;;
39188;SDS011;24915;50.858;4.376;2022-09-09T13:31:02;7.35;;;2.30;;
39188;SDS011;24915;50.858;4.376;2022-09-09T13:33:38;8.35;;;2.00;;
39188;SDS011;24915;50.858;4.376;2022-09-09T13:38:37;5.72;;;1.60;;
39188;SDS011;24915;50.858;4.376;2022-09-09T13:41:25;8.38;;;2.00;;
39188;SDS011;24915;50.858;4.376;2022-09-09T13:43:55;3.22;;;1.42;;
39188;SDS011;24915;50.858;4.376;2022-09-09T13:48:58;5.43;;;1.73;;
39188;SDS011;24915;50.858;4.376;2022-09-09T13:51:33;5.40;;;1.80;;
39188;SDS011;24915;50.858;4.376;2022-09-09T13:54:00;3.10;;;1.50;;
39188;SDS011;24915;50.858;4.376;2022-09-09T13:56:26;4.68;;;1.27;;
39188;SDS011;24915;50.858;4.376;2022-09-09T13:58:52;3.67;;;1.45;;
39188;SDS011;24915;50.858;4.376;2022-09-09T14:01:17;4.03;;;1.40;;
39188;SDS011;24915;50.858;4.376;2022-09-09T14:03:43;5.45;;;1.77;;
39188;SDS011;24915;50.858;4.376;2022-09-09T14:06:09;4.97;;;1.90;;
39188;SDS011;24915;50.858;4.376;2022-09-09T14:08:35;7.13;;;1.88;;
39188;SDS011;24915;50.858;4.376;2022-09-09T14:11:05;6.60;;;1.60;;
39188;SDS011;24915;50.858;4.376;2022-09-09T14:13:31;4.97;;;1.80;;
39188;SDS011;24915;50.858;4.376;2022-09-09T14:15:57;4.80;;;2.08;;
39188;SDS011;24915;50.858;4.376;2022-09-09T14:18:22;7.80;;;2.47;;
39188;SDS011;24915;50.858;4.376;2022-09-09T14:20:50;6.88;;;2.10;;
39188;SDS011;24915;50.858;4.376;2022-09-09T14:23:16;9.23;;;2.10;;
39188;SDS011;24915;50.858;4.376;2022-09-09T14:25:46;4.55;;;2.05;;
39188;SDS011;24915;50.858;4.376;2022-09-09T14:28:14;9.63;;;2.45;;
39188;SDS011;24915;50.858;4.376;2022-09-09T14:30:43;6.50;;;1.80;;
39188;SDS011;24915;50.858;4.376;2022-09-09T14:33:13;5.78;;;1.70;;
39188;SDS011;24915;50.858;4.376;2022-09-09T14:35:40;3.00;;;1.60;;
39188;SDS011;24915;50.858;4.376;2022-09-09T14:38:07;5.97;;;2.20;;
39188;SDS011;24915;50.858;4.376;2022-09-09T14:40:34;6.15;;;2.53;;
39188;SDS011;24915;50.858;4.376;2022-09-09T14:43:00;5.95;;;1.77;;
39188;SDS011;24915;50.858;4.376;2022-09-09T14:45:27;10.65;;;1.63;;
39188;SDS011;24915;50.858;4.376;2022-09-09T14:47:53;9.02;;;1.92;;
39188;SDS011;24915;50.858;4.376;2022-09-09T14:50:19;9.25;;;2.72;;
39188;SDS011;24915;50.858;4.376;2022-09-09T14:52:45;7.78;;;2.20;;
39188;SDS011;24915;50.858;4.376;2022-09-09T14:55:12;5.90;;;1.42;;
39188;SDS011;24915;50.858;4.376;2022-09-09T14:57:38;7.03;;;1.88;;
39188;SDS011;24915;50.858;4.376;2022-09-09T15:00:05;3.67;;;1.50;;
39188;SDS011;24915;50.858;4.376;2022-09-09T15:02:32;6.32;;;1.75;;
39188;SDS011;24915;50.858;4.376;2022-09-09T15:04:58;3.92;;;1.42;;
39188;SDS011;24915;50.858;4.376;2022-09-09T15:07:24;10.30;;;1.98;;
39188;SDS011;24915;50.858;4.376;2022-09-09T15:09:51;7.43;;;2.15;;
39188;SDS011;24915;50.858;4.376;2022-09-09T15:12:17;4.32;;;1.73;;
39188;SDS011;24915;50.858;4.376;2022-09-09T15:14:46;5.15;;;2.10;;
39188;SDS011;24915;50.858;4.376;2022-09-09T15:17:12;3.63;;;1.67;;
39188;SDS011;24915;50.858;4.376;2022-09-09T15:19:38;10.20;;;3.10;;
39188;SDS011;24915;50.858;4.376;2022-09-09T15:22:06;6.45;;;2.60;;
39188;SDS011;24915;50.858;4.376;2022-09-09T15:24:33;5.80;;;1.92;;
39188;SDS011;24915;50.858;4.376;2022-09-09T15:26:59;5.03;;;2.00;;
39188;SDS011;24915;50.858;4.376;2022-09-09T15:29:25;7.93;;;1.80;;
39188;SDS011;24915;50.858;4.376;2022-09-09T15:31:50;8.45;;;2.17;;
39188;SDS011;24915;50.858;4.376;2022-09-09T15:34:18;5.03;;;2.05;;
39188;SDS011;24915;50.858;4.376;2022-09-09T15:36:44;5.68;;;1.85;;
39188;SDS011;24915;50.858;4.376;2022-09-09T15:39:16;5.63;;;2.00;;
39188;SDS011;24915;50.858;4.376;2022-09-09T15:41:43;6.30;;;1.75;;
39188;SDS011;24915;50.858;4.376;2022-09-09T15:44:13;5.75;;;1.70;;
39188;SDS011;24915;50.858;4.376;2022-09-09T15:46:50;9.90;;;1.75;;
39188;SDS011;24915;50.858;4.376;2022-09-09T15:49:27;4.75;;;1.55;;
39188;SDS011;24915;50.858;4.376;2022-09-09T15:51:53;5.03;;;1.58;;
39188;SDS011;24915;50.858;4.376;2022-09-09T15:54:22;6.75;;;1.58;;
39188;SDS011;24915;50.858;4.376;2022-09-09T15:56:50;5.68;;;1.70;;
39188;SDS011;24915;50.858;4.376;2022-09-09T15:59:17;11.57;;;2.05;;
39188;SDS011;24915;50.858;4.376;2022-09-09T16:01:43;7.30;;;1.83;;
39188;SDS011;24915;50.858;4.376;2022-09-09T16:04:09;6.65;;;2.30;;
39188;SDS011;24915;50.858;4.376;2022-09-09T16:06:35;7.40;;;2.72;;
39188;SDS011;24915;50.858;4.376;2022-09-09T16:09:02;4.47;;;2.00;;
39188;SDS011;24915;50.858;4.376;2022-09-09T16:11:33;7.18;;;4.20;;
39188;SDS011;24915;50.858;4.376;2022-09-09T16:14:01;6.15;;;2.60;;
39188;SDS011;24915;50.858;4.376;2022-09-09T16:16:28;7.05;;;2.58;;
39188;SDS011;24915;50.858;4.376;2022-09-09T16:18:58;7.68;;;2.40;;
39188;SDS011;24915;50.858;4.376;2022-09-09T16:21:27;5.22;;;2.50;;
39188;SDS011;24915;50.858;4.376;2022-09-09T16:23:54;7.22;;;3.00;;
39188;SDS011;24915;50.858;4.376;2022-09-09T16:26:21;6.55;;;3.10;;
39188;SDS011;24915;50.858;4.376;2022-09-09T16:28:48;9.75;;;2.85;;
39188;SDS011;24915;50.858;4.376;2022-09-09T16:31:18;5.60;;;1.88;;
39188;SDS011;24915;50.858;4.376;2022-09-09T16:33:45;5.78;;;2.00;;
39188;SDS011;24915;50.858;4.376;2022-09-09T16:36:15;5.15;;;1.75;;
39188;SDS011;24915;50.858;4.376;2022-09-09T16:38:43;6.53;;;2.10;;
39188;SDS011;24915;50.858;4.376;2022-09-09T16:41:10;5.13;;;2.50;;
39188;SDS011;24915;50.858;4.376;2022-09-09T16:43:37;5.05;;;2.40;;
39188;SDS011;24915;50.858;4.376;2022-09-09T16:46:03;6.65;;;3.03;;
39188;SDS011;24915;50.858;4.376;2022-09-09T16:48:40;5.43;;;3.08;;
39188;SDS011;24915;50.858;4.376;2022-09-09T16:51:07;5.78;;;2.70;;
39188;SDS011;24915;50.858;4.376;2022-09-09T16:53:36;5.93;;;2.97;;
39188;SDS011;24915;50.858;4.376;2022-09-09T16:56:06;9.48;;;4.53;;
39188;SDS011;24915;50.858;4.376;2022-09-09T16:58:32;7.95;;;4.18;;
39188;SDS011;24915;50.858;4.376;2022-09-09T17:00:58;7.07;;;3.00;;
39188;SDS011;24915;50.858;4.376;2022-09-09T17:03:26;6.78;;;2.80;;
39188;SDS011;24915;50.858;4.376;2022-09-09T17:05:52;5.85;;;2.90;;
39188;SDS011;24915;50.858;4.376;2022-09-09T17:08:18;4.82;;;2.70;;
39188;SDS011;24915;50.858;4.376;2022-09-09T17:10:44;8.13;;;2.88;;
39188;SDS011;24915;50.858;4.376;2022-09-09T17:13:10;5.35;;;2.70;;
39188;SDS011;24915;50.858;4.376;2022-09-09T17:15:41;8.00;;;3.22;;
39188;SDS011;24915;50.858;4.376;2022-09-09T17:18:08;10.52;;;5.53;;
39188;SDS011;24915;50.858;4.376;2022-09-09T17:20:38;8.38;;;3.40;;
39188;SDS011;24915;50.858;4.376;2022-09-09T17:23:04;11.15;;;3.20;;
39188;SDS011;24915;50.858;4.376;2022-09-09T17:25:34;7.32;;;2.70;;
39188;SDS011;24915;50.858;4.376;2022-09-09T17:28:00;9.18;;;3.22;;
39188;SDS011;24915;50.858;4.376;2022-09-09T17:30:28;6.45;;;2.20;;
39188;SDS011;24915;50.858;4.376;2022-09-09T17:32:56;6.53;;;2.53;;
39188;SDS011;24915;50.858;4.376;2022-09-09T17:35:22;5.63;;;2.92;;